Time,TemperatureF,DewpointF,PressureIn,WindDirection,WindDirectionDegrees,WindSpeedMPH,WindSpeedGustMPH,Humidity,HourlyPrecipIn,Conditions,Clouds,dailyrainin,SoftwareType,DateUTC
2014-01-02 00:00:00,35.4,32.2,30.02,South,178,0.0,0.0,88,0.00,,CLR,0.00,VWS V14.00,2014-01-02 05:00:00,
2014-01-02 00:01:00,35.5,32.3,30.02,South,178,0.0,0.0,88,0.00,,CLR,0.00,VWS V14.00,2014-01-02 05:01:00,
2014-01-02 00:06:00,35.3,31.8,30.02,South,178,0.0,0.0,87,0.00,,CLR,0.00,VWS V14.00,2014-01-02 05:06:00,
2014-01-02 00:11:00,35.1,31.6,30.02,South,177,0.0,0.0,87,0.00,,CLR,0.00,VWS V14.00,2014-01-02 05:11:00,
2014-01-02 00:16:00,35.0,31.5,30.02,South,178,0.0,0.0,87,0.00,,CLR,0.00,VWS V14.00,2014-01-02 05:16:00,
2014-01-02 00:21:00,34.9,31.7,30.03,South,178,0.0,0.0,88,0.00,,CLR,0.00,VWS V14.00,2014-01-02 05:21:00,
2014-01-02 00:26:00,34.9,31.4,30.03,South,178,0.0,0.0,87,0.00,,CLR,0.00,VWS V14.00,2014-01-02 05:26:00,
2014-01-02 00:31:00,34.9,31.7,30.03,South,177,0.0,1.0,88,0.00,,CLR,0.00,VWS V14.00,2014-01-02 05:31:00,
2014-01-02 00:36:00,34.8,31.6,30.02,NNW,348,0.0,1.0,88,0.00,,CLR,0.00,VWS V14.00,2014-01-02 05:36:00,
2014-01-02 00:41:00,34.8,31.6,30.02,NNW,348,0.0,1.0,88,0.00,,CLR,0.00,VWS V14.00,2014-01-02 05:41:00,
2014-01-02 00:46:00,34.9,31.7,30.02,NNW,347,0.0,1.0,88,0.00,,CLR,0.00,VWS V14.00,2014-01-02 05:46:00,
2014-01-02 00:51:00,34.9,31.7,30.01,NNW,347,0.0,1.0,88,0.00,,CLR,0.00,VWS V14.00,2014-01-02 05:51:00,
2014-01-02 00:56:00,35.0,31.8,30.01,NNW,347,0.0,1.0,88,0.00,,CLR,0.00,VWS V14.00,2014-01-02 05:56:00,
2014-01-02 01:00:00,35.1,31.9,30.00,NNW,347,0.0,1.0,88,0.00,,CLR,0.00,VWS V14.00,2014-01-02 06:00:00,
2014-01-02 01:01:00,35.0,31.8,30.01,NNW,348,0.0,1.0,88,0.00,,CLR,0.00,VWS V14.00,2014-01-02 06:01:00,
2014-01-02 01:06:00,35.3,32.1,30.00,NNW,348,0.0,0.0,88,0.00,,CLR,0.00,VWS V14.00,2014-01-02 06:06:00,
2014-01-02 01:11:00,35.7,32.5,30.00,NNW,348,0.0,0.0,88,0.00,,CLR,0.00,VWS V14.00,2014-01-02 06:11:00,
2014-01-02 01:16:00,35.8,32.6,30.00,NNW,347,0.0,0.0,88,0.00,,CLR,0.00,VWS V14.00,2014-01-02 06:16:00,
2014-01-02 01:21:00,35.7,32.5,30.00,NNW,348,0.0,0.0,88,0.00,,CLR,0.00,VWS V14.00,2014-01-02 06:21:00,
2014-01-02 01:26:00,35.6,32.4,30.00,NNW,348,0.0,0.0,88,0.00,,CLR,0.00,VWS V14.00,2014-01-02 06:26:00,
2014-01-02 01:31:00,35.5,32.3,30.00,NNW,348,0.0,0.0,88,0.00,,CLR,0.00,VWS V14.00,2014-01-02 06:31:00,
2014-01-02 01:36:00,35.5,32.3,29.99,NNW,348,0.0,0.0,88,0.00,,CLR,0.00,VWS V14.00,2014-01-02 06:36:00,
2014-01-02 01:41:00,35.5,32.3,29.99,NNW,347,0.0,0.0,88,0.00,,CLR,0.00,VWS V14.00,2014-01-02 06:41:00,
2014-01-02 01:46:00,35.6,32.4,29.99,NNW,348,0.0,0.0,88,0.00,,CLR,0.00,VWS V14.00,2014-01-02 06:46:00,
2014-01-02 01:51:00,35.6,32.7,29.99,NNW,348,0.0,0.0,89,0.00,,CLR,0.00,VWS V14.00,2014-01-02 06:51:00,
2014-01-02 01:56:00,35.6,32.7,29.99,NNW,347,0.0,0.0,89,0.00,,CLR,0.00,VWS V14.00,2014-01-02 06:56:00,
2014-01-02 02:00:00,35.7,32.8,29.99,NNW,348,0.0,0.0,89,0.00,,CLR,0.00,VWS V14.00,2014-01-02 07:00:00,
2014-01-02 02:01:00,35.7,32.8,29.99,NNW,347,0.0,0.0,89,0.00,,CLR,0.00,VWS V14.00,2014-01-02 07:01:00,
2014-01-02 02:06:00,35.7,32.8,29.99,NNW,348,0.0,0.0,89,0.00,,CLR,0.00,VWS V14.00,2014-01-02 07:06:00,
2014-01-02 02:07:00,35.7,32.8,29.99,NNW,348,0.0,0.0,89,0.00,,CLR,0.00,VWS V14.00,2014-01-02 07:07:00,
2014-01-02 02:12:00,35.6,32.7,29.99,NNW,348,0.0,1.0,89,0.00,,CLR,0.00,VWS V14.00,2014-01-02 07:12:00,
2014-01-02 02:17:00,35.5,32.6,29.99,NNW,348,0.0,1.0,89,0.00,,CLR,0.00,VWS V14.00,2014-01-02 07:17:00,
2014-01-02 02:22:00,35.4,32.5,29.99,NNW,348,0.0,1.0,89,0.00,,CLR,0.00,VWS V14.00,2014-01-02 07:22:00,
2014-01-02 02:27:00,35.6,32.7,29.99,NNW,348,0.0,1.0,89,0.00,,CLR,0.00,VWS V14.00,2014-01-02 07:27:00,
2014-01-02 02:32:00,35.7,32.8,29.99,NNW,348,0.0,1.0,89,0.00,,CLR,0.00,VWS V14.00,2014-01-02 07:32:00,
2014-01-02 02:37:00,35.7,33.1,29.97,NNW,348,0.0,0.0,90,0.00,,CLR,0.00,VWS V14.00,2014-01-02 07:37:00,
2014-01-02 02:42:00,35.8,33.2,29.97,NNW,347,0.0,0.0,90,0.00,,CLR,0.00,VWS V14.00,2014-01-02 07:42:00,
2014-01-02 02:47:00,35.9,33.3,29.97,NNW,347,0.0,0.0,90,0.00,,CLR,0.00,VWS V14.00,2014-01-02 07:47:00,
2014-01-02 02:52:00,36.1,33.5,29.97,NNW,348,0.0,0.0,90,0.00,,CLR,0.00,VWS V14.00,2014-01-02 07:52:00,
2014-01-02 02:57:00,36.2,33.6,29.97,NNW,348,0.0,0.0,90,0.00,,CLR,0.00,VWS V14.00,2014-01-02 07:57:00,
2014-01-02 03:00:00,36.4,33.8,29.97,NNW,348,0.0,0.0,90,0.00,,CLR,0.00,VWS V14.00,2014-01-02 08:00:00,
2014-01-02 03:02:00,36.4,33.8,29.97,NNW,348,0.0,0.0,90,0.00,,CLR,0.00,VWS V14.00,2014-01-02 08:02:00,
2014-01-02 03:07:00,36.1,33.5,29.97,NNW,347,0.0,1.0,90,0.00,,CLR,0.00,VWS V14.00,2014-01-02 08:07:00,
2014-01-02 03:12:00,36.0,33.4,29.97,NNW,348,0.0,1.0,90,0.00,,CLR,0.00,VWS V14.00,2014-01-02 08:12:00,
2014-01-02 03:17:00,36.2,33.6,29.97,NNW,348,0.0,1.0,90,0.00,,CLR,0.00,VWS V14.00,2014-01-02 08:17:00,
2014-01-02 03:22:00,36.6,34.0,29.94,NNW,348,0.0,1.0,90,0.00,,CLR,0.00,VWS V14.00,2014-01-02 08:22:00,
2014-01-02 03:27:00,36.9,34.2,29.94,NNW,347,0.0,1.0,90,0.00,,CLR,0.00,VWS V14.00,2014-01-02 08:27:00,
2014-01-02 03:30:00,37.1,34.4,29.93,NNW,348,0.0,1.0,90,0.00,,CLR,0.00,VWS V14.00,2014-01-02 08:30:00,
2014-01-02 03:32:00,37.1,34.4,29.94,NNW,347,0.0,1.0,90,0.00,,CLR,0.00,VWS V14.00,2014-01-02 08:32:00,
2014-01-02 03:37:00,37.1,34.4,29.93,NNW,348,0.0,0.0,90,0.00,,CLR,0.00,VWS V14.00,2014-01-02 08:37:00,
2014-01-02 03:42:00,36.9,34.0,29.93,NNW,348,0.0,0.0,89,0.00,,CLR,0.00,VWS V14.00,2014-01-02 08:42:00,
2014-01-02 03:47:00,36.8,34.2,29.93,NNW,348,0.0,0.0,90,0.00,,CLR,0.00,VWS V14.00,2014-01-02 08:47:00,
2014-01-02 03:52:00,37.0,34.3,29.92,NNW,348,0.0,0.0,90,0.00,,CLR,0.00,VWS V14.00,2014-01-02 08:52:00,
2014-01-02 03:57:00,37.0,34.3,29.92,NNW,348,0.0,0.0,90,0.00,,CLR,0.00,VWS V14.00,2014-01-02 08:57:00,
2014-01-02 04:02:00,37.0,34.3,29.92,NNW,347,0.0,0.0,90,0.00,,CLR,0.00,VWS V14.00,2014-01-02 09:02:00,
2014-01-02 04:07:00,37.0,34.3,29.92,NNW,348,0.0,0.0,90,0.00,,CLR,0.00,VWS V14.00,2014-01-02 09:07:00,
2014-01-02 04:12:00,37.2,34.8,29.92,NNW,345,0.0,1.0,91,0.00,,CLR,0.00,VWS V14.00,2014-01-02 09:12:00,
2014-01-02 04:17:00,37.5,35.1,29.92,NNW,345,0.0,1.0,91,0.00,,CLR,0.00,VWS V14.00,2014-01-02 09:17:00,
2014-01-02 04:22:00,37.8,35.4,29.91,NNW,345,0.0,1.0,91,0.00,,CLR,0.00,VWS V14.00,2014-01-02 09:22:00,
2014-01-02 04:27:00,38.0,35.3,29.91,NNW,345,0.0,1.0,90,0.00,,CLR,0.00,VWS V14.00,2014-01-02 09:27:00,
2014-01-02 04:32:00,38.1,35.4,29.91,NNW,345,0.0,1.0,90,0.00,,CLR,0.00,VWS V14.00,2014-01-02 09:32:00,
2014-01-02 04:37:00,38.2,35.5,29.91,NNW,345,0.0,0.0,90,0.00,,CLR,0.00,VWS V14.00,2014-01-02 09:37:00,
2014-01-02 04:42:00,38.3,35.6,29.91,NNW,345,0.0,0.0,90,0.00,,CLR,0.00,VWS V14.00,2014-01-02 09:42:00,
2014-01-02 04:47:00,38.5,35.8,29.91,NNW,345,0.0,0.0,90,0.00,,CLR,0.00,VWS V14.00,2014-01-02 09:47:00,
2014-01-02 04:52:00,38.6,35.9,29.90,NNW,345,0.0,0.0,90,0.00,,CLR,0.00,VWS V14.00,2014-01-02 09:52:00,
2014-01-02 04:57:00,38.7,36.0,29.90,NNW,345,0.0,0.0,90,0.00,,CLR,0.00,VWS V14.00,2014-01-02 09:57:00,
2014-01-02 05:00:00,38.6,35.9,29.90,NNW,345,0.0,0.0,90,0.00,,CLR,0.00,VWS V14.00,2014-01-02 10:00:00,
2014-01-02 05:02:00,38.6,35.9,29.90,NNW,345,0.0,0.0,90,0.00,,CLR,0.00,VWS V14.00,2014-01-02 10:02:00,
2014-01-02 05:07:00,38.4,35.5,29.90,NNW,345,0.0,0.0,89,0.00,,CLR,0.00,VWS V14.00,2014-01-02 10:07:00,
2014-01-02 05:12:00,38.2,35.5,29.90,NNW,345,0.0,0.0,90,0.00,,CLR,0.00,VWS V14.00,2014-01-02 10:12:00,
2014-01-02 05:17:00,38.2,35.5,29.90,NNW,345,0.0,0.0,90,0.00,,CLR,0.00,VWS V14.00,2014-01-02 10:17:00,
2014-01-02 05:22:00,38.2,35.5,29.90,NNW,345,0.0,0.0,90,0.00,,CLR,0.00,VWS V14.00,2014-01-02 10:22:00,
2014-01-02 05:27:00,38.5,36.1,29.90,NNW,345,0.0,0.0,91,0.00,,CLR,0.00,VWS V14.00,2014-01-02 10:27:00,
2014-01-02 05:32:00,38.7,36.0,29.90,NNW,345,0.0,0.0,90,0.00,,CLR,0.00,VWS V14.00,2014-01-02 10:32:00,
2014-01-02 05:37:00,38.9,36.2,29.88,NNW,345,0.0,0.0,90,0.00,,CLR,0.00,VWS V14.00,2014-01-02 10:37:00,
2014-01-02 05:42:00,38.9,36.2,29.88,NNW,345,0.0,0.0,90,0.00,,CLR,0.00,VWS V14.00,2014-01-02 10:42:00,
2014-01-02 05:47:00,38.9,36.2,29.88,NNW,345,0.0,0.0,90,0.00,,CLR,0.00,VWS V14.00,2014-01-02 10:47:00,
2014-01-02 05:52:00,38.4,35.5,29.88,NNW,345,0.0,0.0,89,0.00,,CLR,0.00,VWS V14.00,2014-01-02 10:52:00,
2014-01-02 05:57:00,37.7,34.8,29.88,NNW,345,0.0,1.0,89,0.00,,CLR,0.00,VWS V14.00,2014-01-02 10:57:00,
2014-01-02 06:00:00,37.2,34.5,29.86,NNW,345,0.0,1.0,90,0.00,,CLR,0.00,VWS V14.00,2014-01-02 11:00:00,
2014-01-02 06:02:00,37.3,34.6,29.88,NNW,345,0.0,1.0,90,0.00,,CLR,0.00,VWS V14.00,2014-01-02 11:02:00,
2014-01-02 06:07:00,37.2,34.8,29.86,NNW,345,0.0,0.0,91,0.00,,CLR,0.00,VWS V14.00,2014-01-02 11:07:00,
2014-01-02 06:12:00,37.2,34.8,29.86,NNW,345,0.0,0.0,91,0.00,,CLR,0.00,VWS V14.00,2014-01-02 11:12:00,
2014-01-02 06:17:00,37.1,34.7,29.86,NNW,345,0.0,1.0,91,0.00,,CLR,0.00,VWS V14.00,2014-01-02 11:17:00,
2014-01-02 06:22:00,37.0,34.6,29.86,NNW,345,0.0,1.0,91,0.00,,CLR,0.00,VWS V14.00,2014-01-02 11:22:00,
2014-01-02 06:27:00,36.9,34.5,29.86,NNW,345,1.0,1.0,91,0.00,,CLR,0.00,VWS V14.00,2014-01-02 11:27:00,
2014-01-02 06:30:00,36.7,34.3,29.86,NNW,345,0.0,1.0,91,0.00,,CLR,0.00,VWS V14.00,2014-01-02 11:30:00,
2014-01-02 06:32:00,36.8,34.4,29.86,NNW,345,0.0,1.0,91,0.00,,CLR,0.00,VWS V14.00,2014-01-02 11:32:00,
2014-01-02 06:37:00,36.7,34.3,29.86,NNW,345,1.0,1.0,91,0.00,,CLR,0.00,VWS V14.00,2014-01-02 11:37:00,
2014-01-02 06:42:00,36.8,34.7,29.86,NNW,345,0.0,1.0,92,0.00,,CLR,0.00,VWS V14.00,2014-01-02 11:42:00,
2014-01-02 06:47:00,36.9,34.8,29.86,NNW,345,0.0,1.0,92,0.00,,CLR,0.00,VWS V14.00,2014-01-02 11:47:00,
2014-01-02 06:52:00,37.0,34.9,29.85,NNW,345,0.0,1.0,92,0.00,,CLR,0.00,VWS V14.00,2014-01-02 11:52:00,
2014-01-02 06:57:00,37.2,35.1,29.85,NNW,345,0.0,1.0,92,0.00,,CLR,0.00,VWS V14.00,2014-01-02 11:57:00,
2014-01-02 07:00:00,37.7,35.6,29.84,NNW,345,0.0,1.0,92,0.00,,CLR,0.00,VWS V14.00,2014-01-02 12:00:00,
2014-01-02 07:02:00,37.6,35.5,29.85,NNW,345,0.0,1.0,92,0.00,,CLR,0.00,VWS V14.00,2014-01-02 12:02:00,
2014-01-02 07:07:00,37.6,35.2,29.84,NNW,346,0.0,0.0,91,0.00,,CLR,0.00,VWS V14.00,2014-01-02 12:07:00,
2014-01-02 07:12:00,37.5,35.1,29.84,NNW,346,0.0,0.0,91,0.00,,CLR,0.00,VWS V14.00,2014-01-02 12:12:00,
2014-01-02 07:17:00,37.4,35.0,29.84,NNW,346,0.0,0.0,91,0.00,,CLR,0.00,VWS V14.00,2014-01-02 12:17:00,
2014-01-02 07:22:00,37.5,35.1,29.84,NNW,346,0.0,0.0,91,0.00,,CLR,0.00,VWS V14.00,2014-01-02 12:22:00,
2014-01-02 07:27:00,37.5,35.4,29.84,NNW,346,0.0,0.0,92,0.00,,CLR,0.00,VWS V14.00,2014-01-02 12:27:00,
2014-01-02 07:30:00,37.7,35.6,29.83,NNW,346,0.0,0.0,92,0.00,,CLR,0.00,VWS V14.00,2014-01-02 12:30:00,
2014-01-02 07:32:00,37.7,35.6,29.84,NNW,346,0.0,0.0,92,0.00,,CLR,0.00,VWS V14.00,2014-01-02 12:32:00,
2014-01-02 07:37:00,37.7,35.3,29.83,NNW,346,0.0,0.0,91,0.00,,CLR,0.00,VWS V14.00,2014-01-02 12:37:00,
2014-01-02 07:41:00,37.4,35.0,29.83,NNW,346,0.0,0.0,91,0.00,,CLR,0.00,VWS V14.00,2014-01-02 12:41:00,
2014-01-02 07:46:00,37.1,35.0,29.83,NNW,346,0.0,0.0,92,0.00,,CLR,0.00,VWS V14.00,2014-01-02 12:46:00,
2014-01-02 07:51:00,37.0,34.9,29.83,NNW,346,0.0,0.0,92,0.00,,CLR,0.00,VWS V14.00,2014-01-02 12:51:00,
2014-01-02 07:56:00,37.0,34.9,29.83,NNW,346,0.0,0.0,92,0.00,,CLR,0.00,VWS V14.00,2014-01-02 12:56:00,
2014-01-02 08:00:00,37.0,34.9,29.82,NNW,346,0.0,0.0,92,0.00,,CLR,0.00,VWS V14.00,2014-01-02 13:00:00,
2014-01-02 08:01:00,37.0,34.9,29.83,NNW,346,0.0,0.0,92,0.00,,CLR,0.00,VWS V14.00,2014-01-02 13:01:00,
2014-01-02 08:06:00,37.0,35.2,29.82,NNW,346,0.0,0.0,93,0.00,,CLR,0.00,VWS V14.00,2014-01-02 13:06:00,
2014-01-02 08:11:00,37.1,35.3,29.82,NNW,346,0.0,0.0,93,0.00,,CLR,0.00,VWS V14.00,2014-01-02 13:11:00,
2014-01-02 08:16:00,37.2,35.4,29.82,NNW,346,0.0,0.0,93,0.00,,CLR,0.00,VWS V14.00,2014-01-02 13:16:00,
2014-01-02 08:21:00,37.4,35.6,29.82,NNW,346,0.0,0.0,93,0.00,,CLR,0.00,VWS V14.00,2014-01-02 13:21:00,
2014-01-02 08:26:00,37.9,36.3,29.82,NNW,346,0.0,0.0,94,0.00,,CLR,0.00,VWS V14.00,2014-01-02 13:26:00,
2014-01-02 08:30:00,38.7,37.1,29.80,NNW,346,0.0,0.0,94,0.00,,CLR,0.00,VWS V14.00,2014-01-02 13:30:00,
2014-01-02 08:31:00,38.5,36.9,29.82,NNW,346,0.0,0.0,94,0.00,,CLR,0.00,VWS V14.00,2014-01-02 13:31:00,
2014-01-02 08:36:00,38.9,37.0,29.80,NNW,346,0.0,0.0,93,0.00,,CLR,0.00,VWS V14.00,2014-01-02 13:36:00,
2014-01-02 08:41:00,39.3,37.5,29.80,NNW,346,0.0,0.0,93,0.00,,CLR,0.00,VWS V14.00,2014-01-02 13:41:00,
2014-01-02 08:46:00,39.4,37.3,29.80,NNW,346,0.0,1.0,92,0.00,,CLR,0.00,VWS V14.00,2014-01-02 13:46:00,
2014-01-02 08:51:00,39.2,37.1,29.80,NNW,346,0.0,1.0,92,0.00,,CLR,0.00,VWS V14.00,2014-01-02 13:51:00,
2014-01-02 08:56:00,39.1,37.0,29.80,NNW,346,0.0,1.0,92,0.00,,CLR,0.00,VWS V14.00,2014-01-02 13:56:00,
2014-01-02 09:00:00,39.3,37.2,29.81,NNW,346,0.0,1.0,92,0.00,,CLR,0.00,VWS V14.00,2014-01-02 14:00:00,
2014-01-02 09:01:00,39.3,37.2,29.80,NNW,346,0.0,1.0,92,0.00,,CLR,0.00,VWS V14.00,2014-01-02 14:01:00,
2014-01-02 09:06:00,39.5,37.7,29.81,NNW,346,0.0,0.0,93,0.00,,CLR,0.00,VWS V14.00,2014-01-02 14:06:00,
2014-01-02 09:11:00,39.8,37.7,29.81,NNW,346,0.0,1.0,92,0.00,,CLR,0.00,VWS V14.00,2014-01-02 14:11:00,
2014-01-02 09:16:00,39.7,37.3,29.81,NNW,346,0.0,1.0,91,0.00,,CLR,0.00,VWS V14.00,2014-01-02 14:16:00,
2014-01-02 09:21:00,39.6,37.2,29.81,NNW,346,0.0,1.0,91,0.00,,CLR,0.00,VWS V14.00,2014-01-02 14:21:00,
2014-01-02 09:26:00,39.5,37.1,29.81,NNW,346,0.0,1.0,91,0.00,,CLR,0.00,VWS V14.00,2014-01-02 14:26:00,
2014-01-02 09:30:00,39.6,37.5,29.81,NNW,346,0.0,1.0,92,0.00,,CLR,0.00,VWS V14.00,2014-01-02 14:30:00,
2014-01-02 09:31:00,39.6,37.5,29.81,NNW,346,0.0,1.0,92,0.00,,CLR,0.00,VWS V14.00,2014-01-02 14:31:00,
2014-01-02 09:36:00,39.7,37.6,29.81,NNW,346,0.0,0.0,92,0.00,,CLR,0.00,VWS V14.00,2014-01-02 14:36:00,
2014-01-02 09:41:00,40.0,37.9,29.81,NNW,346,0.0,0.0,92,0.00,,CLR,0.00,VWS V14.00,2014-01-02 14:41:00,
2014-01-02 09:46:00,40.4,38.3,29.81,NNW,346,0.0,0.0,92,0.00,,CLR,0.00,VWS V14.00,2014-01-02 14:46:00,
2014-01-02 09:51:00,40.7,38.3,29.79,NNW,346,0.0,0.0,91,0.00,,CLR,0.00,VWS V14.00,2014-01-02 14:51:00,
2014-01-02 09:56:00,41.1,38.7,29.79,NNW,346,0.0,0.0,91,0.00,,CLR,0.00,VWS V14.00,2014-01-02 14:56:00,
2014-01-02 10:00:00,41.5,39.1,29.79,NNW,346,0.0,0.0,91,0.00,,CLR,0.00,VWS V14.00,2014-01-02 15:00:00,
2014-01-02 10:01:00,41.4,39.0,29.79,NNW,346,0.0,0.0,91,0.00,,CLR,0.00,VWS V14.00,2014-01-02 15:01:00,
2014-01-02 10:06:00,41.7,39.3,29.79,NNW,346,0.0,0.0,91,0.00,,CLR,0.00,VWS V14.00,2014-01-02 15:06:00,
2014-01-02 10:11:00,41.9,39.5,29.79,NNW,346,0.0,0.0,91,0.00,,CLR,0.00,VWS V14.00,2014-01-02 15:11:00,
2014-01-02 10:16:00,42.2,39.8,29.79,NNW,346,0.0,0.0,91,0.00,,CLR,0.00,VWS V14.00,2014-01-02 15:16:00,
2014-01-02 10:21:00,42.5,39.8,29.78,NNW,346,0.0,0.0,90,0.00,,CLR,0.00,VWS V14.00,2014-01-02 15:21:00,
2014-01-02 10:26:00,42.8,40.1,29.78,NNW,346,0.0,0.0,90,0.00,,CLR,0.00,VWS V14.00,2014-01-02 15:26:00,
2014-01-02 10:30:00,43.1,40.4,29.77,NNW,346,0.0,0.0,90,0.00,,CLR,0.00,VWS V14.00,2014-01-02 15:30:00,
2014-01-02 10:31:00,43.0,40.3,29.78,NNW,346,0.0,0.0,90,0.00,,CLR,0.00,VWS V14.00,2014-01-02 15:31:00,
2014-01-02 10:36:00,43.2,40.5,29.77,NNW,346,0.0,0.0,90,0.00,,CLR,0.00,VWS V14.00,2014-01-02 15:36:00,
2014-01-02 10:41:00,43.1,40.4,29.77,NNW,346,0.0,0.0,90,0.00,,CLR,0.00,VWS V14.00,2014-01-02 15:41:00,
2014-01-02 10:46:00,43.0,40.3,29.77,NNW,346,0.0,0.0,90,0.00,,CLR,0.00,VWS V14.00,2014-01-02 15:46:00,
2014-01-02 10:51:00,43.0,40.8,29.77,NNW,346,0.0,0.0,92,0.00,,CLR,0.00,VWS V14.00,2014-01-02 15:51:00,
2014-01-02 10:56:00,43.1,40.9,29.77,NNW,346,0.0,0.0,92,0.00,,CLR,0.00,VWS V14.00,2014-01-02 15:56:00,
2014-01-02 11:00:00,43.4,41.5,29.76,NNW,346,0.0,0.0,93,0.00,,CLR,0.00,VWS V14.00,2014-01-02 16:00:00,
2014-01-02 11:01:00,43.3,41.4,29.77,NNW,346,0.0,0.0,93,0.00,,CLR,0.00,VWS V14.00,2014-01-02 16:01:00,
2014-01-02 11:06:00,43.4,41.5,29.76,West,260,0.0,0.0,93,0.00,,CLR,0.00,VWS V14.00,2014-01-02 16:06:00,
2014-01-02 11:11:00,43.5,41.9,29.76,WSW,239,0.0,2.0,94,0.00,,CLR,0.00,VWS V14.00,2014-01-02 16:11:00,
2014-01-02 11:16:00,43.6,42.0,29.76,WSW,239,0.0,2.0,94,0.00,,CLR,0.00,VWS V14.00,2014-01-02 16:16:00,
2014-01-02 11:21:00,43.6,42.3,29.75,SW,236,0.0,3.0,95,0.01,,CLR,0.01,VWS V14.00,2014-01-02 16:21:00,
2014-01-02 11:26:00,43.6,42.3,29.75,SW,236,0.0,3.0,95,0.01,,CLR,0.01,VWS V14.00,2014-01-02 16:26:00,
2014-01-02 11:30:00,43.6,42.3,29.74,SW,236,0.0,3.0,95,0.02,,CLR,0.02,VWS V14.00,2014-01-02 16:30:00,
2014-01-02 11:31:00,43.6,42.3,29.75,SW,236,0.0,3.0,95,0.01,,CLR,0.01,VWS V14.00,2014-01-02 16:31:00,
2014-01-02 11:36:00,43.7,42.4,29.74,SW,236,0.0,0.0,95,0.02,,CLR,0.02,VWS V14.00,2014-01-02 16:36:00,
2014-01-02 11:41:00,43.8,42.7,29.74,SW,236,0.0,1.0,96,0.03,,CLR,0.03,VWS V14.00,2014-01-02 16:41:00,
2014-01-02 11:46:00,43.7,42.4,29.74,SW,236,0.0,1.0,95,0.03,,CLR,0.03,VWS V14.00,2014-01-02 16:46:00,
2014-01-02 11:51:00,43.6,42.5,29.73,WSW,240,0.0,2.0,96,0.04,,CLR,0.04,VWS V14.00,2014-01-02 16:51:00,
2014-01-02 11:56:00,43.7,42.6,29.73,WSW,241,0.0,2.0,96,0.04,,CLR,0.04,VWS V14.00,2014-01-02 16:56:00,
2014-01-02 12:00:00,43.7,42.6,29.71,WSW,238,0.0,5.0,96,0.05,,CLR,0.05,VWS V14.00,2014-01-02 17:00:00,
2014-01-02 12:01:00,43.7,42.6,29.73,WSW,241,0.0,2.0,96,0.05,,CLR,0.05,VWS V14.00,2014-01-02 17:01:00,
2014-01-02 12:06:00,43.7,42.6,29.71,WSW,237,0.0,1.0,96,0.06,,CLR,0.06,VWS V14.00,2014-01-02 17:06:00,
2014-01-02 12:11:00,43.7,42.6,29.71,SW,236,0.0,1.0,96,0.08,,CLR,0.08,VWS V14.00,2014-01-02 17:11:00,
2014-01-02 12:16:00,43.8,42.7,29.71,WSW,237,0.0,1.0,96,0.09,,CLR,0.09,VWS V14.00,2014-01-02 17:16:00,
2014-01-02 12:21:00,43.9,42.8,29.69,WSW,237,0.0,1.0,96,0.09,,CLR,0.09,VWS V14.00,2014-01-02 17:21:00,
2014-01-02 12:26:00,44.2,43.1,29.69,WSW,237,0.0,1.0,96,0.10,,CLR,0.10,VWS V14.00,2014-01-02 17:26:00,
2014-01-02 12:30:00,44.4,43.3,29.68,WSW,237,0.0,1.0,96,0.12,,CLR,0.12,VWS V14.00,2014-01-02 17:30:00,
2014-01-02 12:31:00,44.3,43.2,29.69,WSW,237,0.0,1.0,96,0.12,,CLR,0.12,VWS V14.00,2014-01-02 17:31:00,
2014-01-02 12:36:00,44.4,43.3,29.68,SSW,208,0.0,1.0,96,0.11,,CLR,0.13,VWS V14.00,2014-01-02 17:36:00,
2014-01-02 12:41:00,44.5,43.4,29.68,SSW,208,0.0,1.0,96,0.12,,CLR,0.14,VWS V14.00,2014-01-02 17:41:00,
2014-01-02 12:46:00,44.5,43.4,29.68,SSW,208,0.0,1.0,96,0.12,,CLR,0.14,VWS V14.00,2014-01-02 17:46:00,
2014-01-02 12:51:00,44.5,43.4,29.67,SSW,208,0.0,1.0,96,0.13,,CLR,0.15,VWS V14.00,2014-01-02 17:51:00,
2014-01-02 12:56:00,44.6,43.5,29.67,SSW,208,0.0,1.0,96,0.13,,CLR,0.15,VWS V14.00,2014-01-02 17:56:00,
2014-01-02 13:00:00,44.7,43.6,29.65,SSE,160,0.0,6.0,96,0.14,,CLR,0.16,VWS V14.00,2014-01-02 18:00:00,
2014-01-02 13:01:00,44.6,43.5,29.67,SSE,160,0.0,6.0,96,0.13,,CLR,0.15,VWS V14.00,2014-01-02 18:01:00,
2014-01-02 13:06:00,44.7,43.6,29.65,SSE,160,0.0,1.0,96,0.11,,CLR,0.16,VWS V14.00,2014-01-02 18:06:00,
2014-01-02 13:11:00,44.9,43.8,29.65,SSE,160,0.0,1.0,96,0.11,,CLR,0.16,VWS V14.00,2014-01-02 18:11:00,
2014-01-02 13:16:00,45.0,44.2,29.65,SSE,160,0.0,1.0,97,0.11,,CLR,0.16,VWS V14.00,2014-01-02 18:16:00,
2014-01-02 13:21:00,45.1,44.3,29.64,SSW,204,2.0,3.0,97,0.12,,CLR,0.17,VWS V14.00,2014-01-02 18:21:00,
2014-01-02 13:26:00,45.1,44.3,29.64,SSW,204,0.0,3.0,97,0.12,,CLR,0.17,VWS V14.00,2014-01-02 18:26:00,
2014-01-02 13:30:00,45.2,44.4,29.63,SSW,204,0.0,3.0,97,0.12,,CLR,0.17,VWS V14.00,2014-01-02 18:30:00,
2014-01-02 13:31:00,45.1,44.3,29.64,SSW,204,0.0,3.0,97,0.12,,CLR,0.17,VWS V14.00,2014-01-02 18:31:00,
2014-01-02 13:36:00,45.2,44.4,29.63,SSW,205,0.0,2.0,97,0.05,,CLR,0.17,VWS V14.00,2014-01-02 18:36:00,
2014-01-02 13:41:00,45.1,44.3,29.63,SSW,205,0.0,2.0,97,0.05,,CLR,0.17,VWS V14.00,2014-01-02 18:41:00,
2014-01-02 13:46:00,45.2,44.4,29.63,SSW,206,0.0,2.0,97,0.06,,CLR,0.18,VWS V14.00,2014-01-02 18:46:00,
2014-01-02 13:51:00,45.2,44.4,29.62,SSW,202,0.0,2.0,97,0.06,,CLR,0.18,VWS V14.00,2014-01-02 18:51:00,
2014-01-02 13:56:00,45.1,44.3,29.62,SSW,202,0.0,2.0,97,0.06,,CLR,0.18,VWS V14.00,2014-01-02 18:56:00,
2014-01-02 14:00:00,45.1,44.3,29.61,SSW,193,0.0,3.0,97,0.06,,CLR,0.18,VWS V14.00,2014-01-02 19:00:00,
2014-01-02 14:01:00,45.1,44.3,29.62,SSW,194,1.0,2.0,97,0.06,,CLR,0.18,VWS V14.00,2014-01-02 19:01:00,
2014-01-02 14:06:00,45.1,44.3,29.61,SSW,193,0.0,5.0,97,0.02,,CLR,0.18,VWS V14.00,2014-01-02 19:06:00,
2014-01-02 14:11:00,45.2,44.4,29.61,WSW,243,5.0,7.0,97,0.02,,CLR,0.18,VWS V14.00,2014-01-02 19:11:00,
2014-01-02 14:16:00,45.2,44.4,29.61,SSW,207,4.0,7.0,97,0.02,,CLR,0.18,VWS V14.00,2014-01-02 19:16:00,
2014-01-02 14:21:00,45.2,44.4,29.60,SSW,207,0.0,10.0,97,0.02,,CLR,0.18,VWS V14.00,2014-01-02 19:21:00,
2014-01-02 14:26:00,45.3,44.5,29.60,SSW,207,0.0,10.0,97,0.02,,CLR,0.18,VWS V14.00,2014-01-02 19:26:00,
2014-01-02 14:30:00,45.5,44.7,29.60,SSW,208,0.0,10.0,97,0.02,,CLR,0.18,VWS V14.00,2014-01-02 19:30:00,
2014-01-02 14:31:00,45.4,44.6,29.60,SSW,208,0.0,10.0,97,0.02,,CLR,0.18,VWS V14.00,2014-01-02 19:31:00,
2014-01-02 14:36:00,45.5,44.7,29.60,SSW,208,0.0,1.0,97,0.01,,CLR,0.18,VWS V14.00,2014-01-02 19:36:00,
2014-01-02 14:41:00,45.5,44.7,29.60,SSW,208,0.0,1.0,97,0.01,,CLR,0.18,VWS V14.00,2014-01-02 19:41:00,
2014-01-02 14:46:00,45.5,44.7,29.60,SSE,167,0.0,5.0,97,0.02,,CLR,0.19,VWS V14.00,2014-01-02 19:46:00,
2014-01-02 14:51:00,45.4,44.6,29.59,South,190,0.0,5.0,97,0.02,,CLR,0.19,VWS V14.00,2014-01-02 19:51:00,
2014-01-02 14:56:00,45.4,44.6,29.59,South,188,0.0,5.0,97,0.02,,CLR,0.19,VWS V14.00,2014-01-02 19:56:00,
2014-01-02 15:00:00,45.5,44.7,29.58,WSW,247,3.0,5.0,97,0.02,,CLR,0.19,VWS V14.00,2014-01-02 20:00:00,
2014-01-02 15:01:00,45.4,44.6,29.59,South,187,0.0,5.0,97,0.02,,CLR,0.19,VWS V14.00,2014-01-02 20:01:00,
2014-01-02 15:06:00,45.5,44.7,29.58,South,188,2.0,3.0,97,0.01,,CLR,0.19,VWS V14.00,2014-01-02 20:06:00,
2014-01-02 15:11:00,45.4,44.6,29.58,South,181,0.0,3.0,97,0.01,,CLR,0.19,VWS V14.00,2014-01-02 20:11:00,
2014-01-02 15:16:00,45.4,44.6,29.58,South,186,1.0,4.0,97,0.01,,CLR,0.19,VWS V14.00,2014-01-02 20:16:00,
2014-01-02 15:21:00,45.4,44.6,29.57,SSW,198,2.0,5.0,97,0.02,,CLR,0.20,VWS V14.00,2014-01-02 20:21:00,
2014-01-02 15:26:00,45.4,44.6,29.57,SSW,198,1.0,5.0,97,0.02,,CLR,0.20,VWS V14.00,2014-01-02 20:26:00,
2014-01-02 15:30:00,45.4,44.6,29.57,South,170,2.0,8.0,97,0.03,,CLR,0.21,VWS V14.00,2014-01-02 20:30:00,
2014-01-02 15:31:00,45.4,44.6,29.57,SSW,195,2.0,5.0,97,0.03,,CLR,0.21,VWS V14.00,2014-01-02 20:31:00,
2014-01-02 15:36:00,45.4,44.6,29.57,South,170,0.0,3.0,97,0.03,,CLR,0.21,VWS V14.00,2014-01-02 20:36:00,
2014-01-02 15:41:00,45.3,44.5,29.57,South,171,0.0,3.0,97,0.03,,CLR,0.21,VWS V14.00,2014-01-02 20:41:00,
2014-01-02 15:46:00,45.3,44.5,29.57,South,181,1.0,4.0,97,0.03,,CLR,0.21,VWS V14.00,2014-01-02 20:46:00,
2014-01-02 15:51:00,45.3,44.5,29.57,South,180,2.0,4.0,97,0.03,,CLR,0.21,VWS V14.00,2014-01-02 20:51:00,
2014-01-02 15:56:00,45.3,44.5,29.57,South,180,0.0,4.0,97,0.03,,CLR,0.21,VWS V14.00,2014-01-02 20:56:00,
2014-01-02 16:00:00,45.4,44.6,29.57,SSW,208,5.0,5.0,97,0.03,,CLR,0.21,VWS V14.00,2014-01-02 21:00:00,
2014-01-02 16:01:00,45.3,44.5,29.57,South,182,1.0,4.0,97,0.03,,CLR,0.21,VWS V14.00,2014-01-02 21:01:00,
2014-01-02 16:06:00,45.3,44.5,29.57,SSW,208,0.0,5.0,97,0.02,,CLR,0.21,VWS V14.00,2014-01-02 21:06:00,
2014-01-02 16:11:00,45.4,44.6,29.57,SSW,213,2.0,6.0,97,0.02,,CLR,0.21,VWS V14.00,2014-01-02 21:11:00,
2014-01-02 16:16:00,45.4,44.6,29.57,SSW,194,4.0,7.0,97,0.02,,CLR,0.21,VWS V14.00,2014-01-02 21:16:00,
2014-01-02 16:21:00,45.4,44.6,29.57,SW,217,3.0,7.0,97,0.02,,CLR,0.21,VWS V14.00,2014-01-02 21:21:00,
2014-01-02 16:26:00,45.4,44.6,29.57,SW,220,4.0,7.0,97,0.02,,CLR,0.21,VWS V14.00,2014-01-02 21:26:00,
2014-01-02 16:30:00,45.5,44.7,29.56,SW,222,3.0,7.0,97,0.03,,CLR,0.22,VWS V14.00,2014-01-02 21:30:00,
2014-01-02 16:31:00,45.5,44.7,29.57,SSW,203,6.0,7.0,97,0.02,,CLR,0.21,VWS V14.00,2014-01-02 21:31:00,
2014-01-02 16:36:00,45.5,44.7,29.56,SW,214,4.0,4.0,97,0.01,,CLR,0.22,VWS V14.00,2014-01-02 21:36:00,
2014-01-02 16:41:00,45.5,44.7,29.56,SW,221,3.0,13.0,97,0.01,,CLR,0.22,VWS V14.00,2014-01-02 21:41:00,
2014-01-02 16:46:00,45.6,44.8,29.56,SW,219,6.0,13.0,97,0.01,,CLR,0.22,VWS V14.00,2014-01-02 21:46:00,
2014-01-02 16:51:00,45.6,44.8,29.56,SW,216,3.0,13.0,97,0.01,,CLR,0.22,VWS V14.00,2014-01-02 21:51:00,
2014-01-02 16:56:00,45.6,44.8,29.56,SW,221,4.0,13.0,97,0.01,,CLR,0.22,VWS V14.00,2014-01-02 21:56:00,
2014-01-02 17:00:00,45.6,44.8,29.56,SW,215,4.0,13.0,97,0.01,,CLR,0.22,VWS V14.00,2014-01-02 22:00:00,
2014-01-02 17:01:00,45.6,44.8,29.56,SW,221,5.0,13.0,97,0.01,,CLR,0.22,VWS V14.00,2014-01-02 22:01:00,
2014-01-02 17:06:00,45.6,44.8,29.56,SW,216,4.0,11.0,97,0.01,,CLR,0.22,VWS V14.00,2014-01-02 22:06:00,
2014-01-02 17:11:00,45.6,44.8,29.56,WSW,254,6.0,11.0,97,0.01,,CLR,0.22,VWS V14.00,2014-01-02 22:11:00,
2014-01-02 17:16:00,45.6,44.8,29.56,SW,214,1.0,11.0,97,0.01,,CLR,0.22,VWS V14.00,2014-01-02 22:16:00,
2014-01-02 17:21:00,45.6,44.8,29.56,SW,225,6.0,11.0,97,0.01,,CLR,0.22,VWS V14.00,2014-01-02 22:21:00,
2014-01-02 17:26:00,45.6,44.8,29.56,SW,217,7.0,11.0,97,0.01,,CLR,0.22,VWS V14.00,2014-01-02 22:26:00,
2014-01-02 17:30:00,45.6,44.8,29.56,SW,221,5.0,11.0,97,0.01,,CLR,0.22,VWS V14.00,2014-01-02 22:30:00,
2014-01-02 17:31:00,45.6,44.8,29.56,SW,219,5.0,11.0,97,0.01,,CLR,0.22,VWS V14.00,2014-01-02 22:31:00,
2014-01-02 17:36:00,45.6,44.8,29.56,SW,225,5.0,10.0,97,0.00,,CLR,0.22,VWS V14.00,2014-01-02 22:36:00,
2014-01-02 17:41:00,45.5,44.7,29.56,SW,216,8.0,10.0,97,0.00,,CLR,0.22,VWS V14.00,2014-01-02 22:41:00,
2014-01-02 17:46:00,45.5,44.7,29.56,SW,224,5.0,11.0,97,0.00,,CLR,0.22,VWS V14.00,2014-01-02 22:46:00,
2014-01-02 17:51:00,45.4,44.6,29.56,SW,218,2.0,11.0,97,0.00,,CLR,0.22,VWS V14.00,2014-01-02 22:51:00,
2014-01-02 17:56:00,45.4,44.6,29.56,SW,226,4.0,11.0,97,0.00,,CLR,0.22,VWS V14.00,2014-01-02 22:56:00,
2014-01-02 18:00:00,45.4,44.6,29.56,WSW,237,5.0,11.0,97,0.00,,CLR,0.22,VWS V14.00,2014-01-02 23:00:00,
2014-01-02 18:01:00,45.4,44.6,29.56,SW,217,5.0,11.0,97,0.00,,CLR,0.22,VWS V14.00,2014-01-02 23:01:00,
2014-01-02 18:06:00,45.4,44.6,29.56,WSW,249,12.0,14.0,97,0.00,,CLR,0.22,VWS V14.00,2014-01-02 23:06:00,
2014-01-02 18:11:00,45.4,44.6,29.56,SW,224,3.0,14.0,97,0.00,,CLR,0.22,VWS V14.00,2014-01-02 23:11:00,
2014-01-02 18:16:00,45.3,44.5,29.56,SSW,210,5.0,14.0,97,0.00,,CLR,0.22,VWS V14.00,2014-01-02 23:16:00,
2014-01-02 18:21:00,45.2,44.4,29.57,SW,221,2.0,14.0,97,0.00,,CLR,0.22,VWS V14.00,2014-01-02 23:21:00,
2014-01-02 18:26:00,45.2,44.4,29.57,SW,219,3.0,14.0,97,0.00,,CLR,0.22,VWS V14.00,2014-01-02 23:26:00,
2014-01-02 18:30:00,45.0,44.2,29.57,WNW,293,2.0,14.0,97,0.00,,CLR,0.22,VWS V14.00,2014-01-02 23:30:00,
2014-01-02 18:31:00,45.1,44.3,29.57,West,277,4.0,14.0,97,0.00,,CLR,0.22,VWS V14.00,2014-01-02 23:31:00,
2014-01-02 18:36:00,45.0,44.2,29.57,NW,305,3.0,5.0,97,0.00,,CLR,0.22,VWS V14.00,2014-01-02 23:36:00,
2014-01-02 18:41:00,44.9,44.1,29.57,WNW,297,0.0,5.0,97,0.00,,CLR,0.22,VWS V14.00,2014-01-02 23:41:00,
2014-01-02 18:46:00,44.8,44.0,29.57,West,278,0.0,5.0,97,0.00,,CLR,0.22,VWS V14.00,2014-01-02 23:46:00,
2014-01-02 18:51:00,44.6,43.8,29.58,West,271,4.0,5.0,97,0.00,,CLR,0.22,VWS V14.00,2014-01-02 23:51:00,
2014-01-02 18:56:00,44.3,43.5,29.58,West,264,3.0,6.0,97,0.00,,CLR,0.22,VWS V14.00,2014-01-02 23:56:00,
2014-01-02 19:00:00,43.9,42.8,29.58,WSW,253,2.0,6.0,96,0.00,,CLR,0.22,VWS V14.00,2014-01-03 00:00:00,
2014-01-02 19:01:00,44.1,43.0,29.58,WNW,288,2.0,6.0,96,0.00,,CLR,0.22,VWS V14.00,2014-01-03 00:01:00,
2014-01-02 19:06:00,43.8,42.5,29.58,West,262,3.0,7.0,95,0.00,,CLR,0.22,VWS V14.00,2014-01-03 00:06:00,
2014-01-02 19:11:00,43.6,42.0,29.58,WSW,257,4.0,7.0,94,0.00,,CLR,0.22,VWS V14.00,2014-01-03 00:11:00,
2014-01-02 19:16:00,43.4,41.5,29.58,West,266,3.0,9.0,93,0.00,,CLR,0.22,VWS V14.00,2014-01-03 00:16:00,
2014-01-02 19:21:00,43.3,41.1,29.58,WSW,238,4.0,9.0,92,0.00,,CLR,0.22,VWS V14.00,2014-01-03 00:21:00,
2014-01-02 19:26:00,43.2,40.8,29.58,SSW,212,7.0,9.0,91,0.00,,CLR,0.22,VWS V14.00,2014-01-03 00:26:00,
2014-01-02 19:30:00,43.2,40.2,29.58,SW,236,5.0,11.0,89,0.00,,CLR,0.22,VWS V14.00,2014-01-03 00:30:00,
2014-01-02 19:31:00,43.2,40.2,29.58,WSW,245,3.0,11.0,89,0.00,,CLR,0.22,VWS V14.00,2014-01-03 00:31:00,
2014-01-02 19:36:00,43.1,39.8,29.58,West,264,4.0,7.0,88,0.00,,CLR,0.22,VWS V14.00,2014-01-03 00:36:00,
2014-01-02 19:41:00,43.1,39.5,29.58,West,262,6.0,11.0,87,0.00,,CLR,0.22,VWS V14.00,2014-01-03 00:41:00,
2014-01-02 19:46:00,43.0,39.1,29.58,WSW,245,5.0,11.0,86,0.00,,CLR,0.22,VWS V14.00,2014-01-03 00:46:00,
2014-01-02 19:51:00,42.8,38.3,29.59,West,259,3.0,11.0,84,0.00,,CLR,0.22,VWS V14.00,2014-01-03 00:51:00,
2014-01-02 19:56:00,42.7,38.2,29.59,WSW,250,5.0,11.0,84,0.00,,CLR,0.22,VWS V14.00,2014-01-03 00:56:00,
2014-01-02 20:00:00,42.5,37.4,29.60,West,269,14.0,18.0,82,0.00,,CLR,0.22,VWS V14.00,2014-01-03 01:00:00,
2014-01-02 20:01:00,42.6,37.5,29.59,WSW,238,6.0,15.0,82,0.00,,CLR,0.22,VWS V14.00,2014-01-03 01:01:00,
2014-01-02 20:06:00,42.5,37.1,29.60,WSW,257,5.0,14.0,81,0.00,,CLR,0.22,VWS V14.00,2014-01-03 01:06:00,
2014-01-02 20:11:00,42.5,37.1,29.60,WSW,252,2.0,18.0,81,0.00,,CLR,0.22,VWS V14.00,2014-01-03 01:11:00,
2014-01-02 20:16:00,42.4,36.7,29.60,WNW,285,4.0,18.0,80,0.00,,CLR,0.22,VWS V14.00,2014-01-03 01:16:00,
2014-01-02 20:21:00,42.2,36.5,29.60,West,262,2.0,18.0,80,0.00,,CLR,0.22,VWS V14.00,2014-01-03 01:21:00,
2014-01-02 20:26:00,42.0,35.7,29.60,WSW,256,9.0,22.0,78,0.00,,CLR,0.22,VWS V14.00,2014-01-03 01:26:00,
2014-01-02 20:30:00,41.7,34.7,29.60,WNW,290,4.0,22.0,76,0.00,,CLR,0.22,VWS V14.00,2014-01-03 01:30:00,
2014-01-02 20:31:00,41.8,35.1,29.60,WNW,300,17.0,22.0,77,0.00,,CLR,0.22,VWS V14.00,2014-01-03 01:31:00,
2014-01-02 20:36:00,41.6,34.3,29.60,WNW,282,10.0,24.0,75,0.00,,CLR,0.22,VWS V14.00,2014-01-03 01:36:00,
2014-01-02 20:41:00,41.4,34.1,29.60,WNW,284,10.0,24.0,75,0.00,,CLR,0.22,VWS V14.00,2014-01-03 01:41:00,
2014-01-02 20:46:00,41.2,33.9,29.60,WSW,245,6.0,24.0,75,0.00,,CLR,0.22,VWS V14.00,2014-01-03 01:46:00,
2014-01-02 20:51:00,40.8,33.8,29.62,WSW,252,13.0,24.0,76,0.00,,CLR,0.22,VWS V14.00,2014-01-03 01:51:00,
2014-01-02 20:56:00,40.6,33.0,29.62,WNW,292,24.0,24.0,74,0.00,,CLR,0.22,VWS V14.00,2014-01-03 01:56:00,
2014-01-02 21:00:00,40.1,31.8,29.62,West,264,21.0,24.0,72,0.00,,CLR,0.22,VWS V14.00,2014-01-03 02:00:00,
2014-01-02 21:01:00,40.2,31.9,29.62,West,267,11.0,24.0,72,0.00,,CLR,0.22,VWS V14.00,2014-01-03 02:01:00,
2014-01-02 21:06:00,40.0,31.7,29.62,West,266,5.0,21.0,72,0.00,,CLR,0.22,VWS V14.00,2014-01-03 02:06:00,
2014-01-02 21:11:00,39.8,31.5,29.62,West,263,15.0,25.0,72,0.00,,CLR,0.22,VWS V14.00,2014-01-03 02:11:00,
2014-01-02 21:16:00,39.6,31.3,29.62,WSW,247,11.0,25.0,72,0.00,,CLR,0.22,VWS V14.00,2014-01-03 02:16:00,
2014-01-02 21:21:00,39.3,31.0,29.63,NW,304,9.0,25.0,72,0.00,,CLR,0.22,VWS V14.00,2014-01-03 02:21:00,
2014-01-02 21:26:00,39.0,31.1,29.63,West,266,14.0,25.0,73,0.00,,CLR,0.22,VWS V14.00,2014-01-03 02:26:00,
2014-01-02 21:30:00,38.5,30.6,29.63,West,280,9.0,25.0,73,0.00,,CLR,0.22,VWS V14.00,2014-01-03 02:30:00,
2014-01-02 21:31:00,38.7,30.8,29.63,West,266,4.0,25.0,73,0.00,,CLR,0.22,VWS V14.00,2014-01-03 02:31:00,
2014-01-02 21:36:00,38.3,30.4,29.63,NW,308,4.0,20.0,73,0.00,,CLR,0.22,VWS V14.00,2014-01-03 02:36:00,
2014-01-02 21:41:00,38.1,30.2,29.63,SW,224,15.0,20.0,73,0.00,,CLR,0.22,VWS V14.00,2014-01-03 02:41:00,
2014-01-02 21:46:00,37.7,29.5,29.63,West,276,6.0,21.0,72,0.00,,CLR,0.22,VWS V14.00,2014-01-03 02:46:00,
2014-01-02 21:51:00,37.4,28.5,29.65,NW,321,4.0,25.0,70,0.00,,CLR,0.22,VWS V14.00,2014-01-03 02:51:00,
2014-01-02 21:56:00,37.0,28.1,29.65,West,272,14.0,25.0,70,0.00,,CLR,0.22,VWS V14.00,2014-01-03 02:56:00,
2014-01-02 22:00:00,36.5,27.7,29.65,West,271,10.0,25.0,70,0.00,,CLR,0.22,VWS V14.00,2014-01-03 03:00:00,
2014-01-02 22:01:00,36.7,28.2,29.65,WNW,300,11.0,25.0,71,0.00,,CLR,0.22,VWS V14.00,2014-01-03 03:01:00,
2014-01-02 22:06:00,36.3,27.5,29.65,SW,236,13.0,24.0,70,0.00,,CLR,0.22,VWS V14.00,2014-01-03 03:06:00,
2014-01-02 22:11:00,36.1,26.2,29.65,West,279,16.0,24.0,67,0.00,,CLR,0.22,VWS V14.00,2014-01-03 03:11:00,
2014-01-02 22:16:00,35.7,25.5,29.65,SW,221,5.0,25.0,66,0.00,,CLR,0.22,VWS V14.00,2014-01-03 03:16:00,
2014-01-02 22:21:00,35.3,25.1,29.67,WNW,303,11.0,25.0,66,0.00,,CLR,0.22,VWS V14.00,2014-01-03 03:21:00,
2014-01-02 22:26:00,34.9,24.7,29.67,WSW,250,10.0,25.0,66,0.00,,CLR,0.22,VWS V14.00,2014-01-03 03:26:00,
2014-01-02 22:30:00,34.5,24.7,29.69,West,274,7.0,25.0,67,0.00,,CLR,0.22,VWS V14.00,2014-01-03 03:30:00,
2014-01-02 22:31:00,34.6,24.1,29.67,SW,228,6.0,25.0,65,0.00,,CLR,0.22,VWS V14.00,2014-01-03 03:31:00,
2014-01-02 22:36:00,34.4,24.2,29.69,WSW,239,11.0,22.0,66,0.00,,CLR,0.22,VWS V14.00,2014-01-03 03:36:00,
2014-01-02 22:41:00,34.2,23.7,29.69,WNW,283,16.0,25.0,65,0.00,,CLR,0.22,VWS V14.00,2014-01-03 03:41:00,
2014-01-02 22:46:00,33.8,22.9,29.69,WSW,238,10.0,25.0,64,0.00,,CLR,0.22,VWS V14.00,2014-01-03 03:46:00,
2014-01-02 22:51:00,33.5,22.6,29.70,WNW,283,10.0,25.0,64,0.00,,CLR,0.22,VWS V14.00,2014-01-03 03:51:00,
2014-01-02 22:56:00,33.1,22.6,29.70,West,274,13.0,25.0,65,0.00,,CLR,0.22,VWS V14.00,2014-01-03 03:56:00,
2014-01-02 23:00:00,32.7,21.1,29.70,WNW,293,23.0,27.0,62,0.00,,CLR,0.22,VWS V14.00,2014-01-03 04:00:00,
2014-01-02 23:05:00,32.4,20.5,29.71,West,273,13.0,23.0,61,0.00,,CLR,0.22,VWS V14.00,2014-01-03 04:05:00,
2014-01-02 23:10:00,31.9,20.4,29.71,WNW,295,14.0,23.0,62,0.00,,CLR,0.22,VWS V14.00,2014-01-03 04:10:00,
2014-01-02 23:15:00,31.6,20.5,29.71,WSW,257,17.0,23.0,63,0.00,,CLR,0.22,VWS V14.00,2014-01-03 04:15:00,
2014-01-02 23:20:00,31.4,20.3,29.71,SSW,208,10.0,23.0,63,0.00,,CLR,0.22,VWS V14.00,2014-01-03 04:20:00,
2014-01-02 23:25:00,31.1,19.6,29.71,WSW,241,14.0,23.0,62,0.00,,CLR,0.22,VWS V14.00,2014-01-03 04:25:00,
2014-01-02 23:30:00,30.6,19.5,29.71,SW,233,9.0,23.0,63,0.00,,CLR,0.22,VWS V14.00,2014-01-03 04:30:00,
2014-01-02 23:35:00,30.2,18.8,29.74,WSW,253,9.0,16.0,62,0.00,,CLR,0.22,VWS V14.00,2014-01-03 04:35:00,
2014-01-02 23:40:00,29.8,18.4,29.74,WSW,257,10.0,20.0,62,0.00,,CLR,0.22,VWS V14.00,2014-01-03 04:40:00,
2014-01-02 23:45:00,29.6,17.8,29.74,WSW,254,5.0,21.0,61,0.00,,CLR,0.22,VWS V14.00,2014-01-03 04:45:00,
2014-01-02 23:50:00,29.3,17.9,29.73,West,273,4.0,21.0,62,0.00,,CLR,0.22,VWS V14.00,2014-01-03 04:50:00,
2014-01-02 23:55:00,29.1,17.7,29.73,WSW,242,9.0,21.0,62,0.00,,CLR,0.22,VWS V14.00,2014-01-03 04:55:00,